sensor_id;sensor_type;location;lat;lon;timestamp;pressure;altitude;pressure_sealevel;temperature;humidity
1472;BME280;963;42.644;23.336;2022-11-20T00:01:13;93466.97;;;17.75;61.16
1472;BME280;963;42.644;23.336;2022-11-20T00:03:39;93489.41;;;17.58;61.49
1472;BME280;963;42.644;23.336;2022-11-20T00:06:07;93515.38;;;16.62;66.61
1472;BME280;963;42.644;23.336;2022-11-20T00:08:33;93525.88;;;16.89;63.82
1472;BME280;963;42.644;23.336;2022-11-20T00:11:04;93529.19;;;16.77;65.50
1472;BME280;963;42.644;23.336;2022-11-20T00:13:29;93481.78;;;17.28;60.89
1472;BME280;963;42.644;23.336;2022-11-20T00:15:59;93454.09;;;17.90;58.06
1472;BME280;963;42.644;23.336;2022-11-20T00:18:26;93492.22;;;18.00;58.87
1472;BME280;963;42.644;23.336;2022-11-20T00:20:51;93454.78;;;18.07;57.46
1472;BME280;963;42.644;23.336;2022-11-20T00:23:17;93466.56;;;18.22;56.98
1472;BME280;963;42.644;23.336;2022-11-20T00:25:42;93483.34;;;18.19;57.54
1472;BME280;963;42.644;23.336;2022-11-20T00:28:08;93451.34;;;18.35;56.06
1472;BME280;963;42.644;23.336;2022-11-20T00:30:33;93443.50;;;18.44;55.98
1472;BME280;963;42.644;23.336;2022-11-20T00:32:58;93505.19;;;18.56;54.74
1472;BME280;963;42.644;23.336;2022-11-20T00:35:24;93459.22;;;18.68;54.88
1472;BME280;963;42.644;23.336;2022-11-20T00:37:49;93538.44;;;18.80;54.18
1472;BME280;963;42.644;23.336;2022-11-20T00:40:15;93486.75;;;18.90;53.51
1472;BME280;963;42.644;23.336;2022-11-20T00:42:40;93469.34;;;18.86;55.44
1472;BME280;963;42.644;23.336;2022-11-20T00:45:06;93476.72;;;18.69;55.58
1472;BME280;963;42.644;23.336;2022-11-20T00:47:32;93470.00;;;18.64;54.42
1472;BME280;963;42.644;23.336;2022-11-20T00:49:57;93466.81;;;18.82;53.69
1472;BME280;963;42.644;23.336;2022-11-20T00:52:22;93484.59;;;18.85;53.29
1472;BME280;963;42.644;23.336;2022-11-20T00:54:48;93485.13;;;18.93;52.63
1472;BME280;963;42.644;23.336;2022-11-20T00:57:13;93498.38;;;18.96;52.53
1472;BME280;963;42.644;23.336;2022-11-20T00:59:39;93482.72;;;18.98;52.05
1472;BME280;963;42.644;23.336;2022-11-20T01:02:04;93486.34;;;19.04;52.12
1472;BME280;963;42.644;23.336;2022-11-20T01:04:30;93478.44;;;19.14;51.64
1472;BME280;963;42.644;23.336;2022-11-20T01:06:55;93488.91;;;19.08;51.85
1472;BME280;963;42.644;23.336;2022-11-20T01:09:21;93469.28;;;19.15;52.06
1472;BME280;963;42.644;23.336;2022-11-20T01:11:46;93446.25;;;19.08;52.42
1472;BME280;963;42.644;23.336;2022-11-20T01:14:14;93445.16;;;19.18;51.90
1472;BME280;963;42.644;23.336;2022-11-20T01:16:43;93454.13;;;19.12;52.19
1472;BME280;963;42.644;23.336;2022-11-20T01:19:15;93435.91;;;19.10;51.81
1472;BME280;963;42.644;23.336;2022-11-20T01:21:42;93439.09;;;19.18;51.73
1472;BME280;963;42.644;23.336;2022-11-20T01:24:11;93439.84;;;18.80;52.98
1472;BME280;963;42.644;23.336;2022-11-20T01:26:38;93449.03;;;19.04;51.78
1472;BME280;963;42.644;23.336;2022-11-20T01:29:05;93442.94;;;19.17;51.93
1472;BME280;963;42.644;23.336;2022-11-20T01:31:36;93436.31;;;19.09;52.09
1472;BME280;963;42.644;23.336;2022-11-20T01:34:07;93429.19;;;19.05;52.47
1472;BME280;963;42.644;23.336;2022-11-20T01:36:35;93433.66;;;19.09;52.26
1472;BME280;963;42.644;23.336;2022-11-20T01:39:04;93412.97;;;18.87;52.82
1472;BME280;963;42.644;23.336;2022-11-20T01:41:31;93418.31;;;18.87;53.45
1472;BME280;963;42.644;23.336;2022-11-20T01:44:18;93417.97;;;18.85;52.86
1472;BME280;963;42.644;23.336;2022-11-20T01:47:04;93409.03;;;19.04;52.19
1472;BME280;963;42.644;23.336;2022-11-20T01:49:50;93404.03;;;19.07;52.18
1472;BME280;963;42.644;23.336;2022-11-20T01:52:21;93392.59;;;19.06;51.58
1472;BME280;963;42.644;23.336;2022-11-20T01:55:08;93381.75;;;18.88;53.23
1472;BME280;963;42.644;23.336;2022-11-20T01:57:35;93416.91;;;18.83;52.98
1472;BME280;963;42.644;23.336;2022-11-20T02:00:07;93395.22;;;18.55;53.93
1472;BME280;963;42.644;23.336;2022-11-20T02:02:34;93411.91;;;18.72;53.58
1472;BME280;963;42.644;23.336;2022-11-20T02:05:04;93407.44;;;18.69;54.08
1472;BME280;963;42.644;23.336;2022-11-20T02:07:33;93416.59;;;18.68;53.30
1472;BME280;963;42.644;23.336;2022-11-20T02:09:59;93434.81;;;18.69;53.03
1472;BME280;963;42.644;23.336;2022-11-20T02:12:25;93439.72;;;18.71;53.15
1472;BME280;963;42.644;23.336;2022-11-20T02:15:09;93436.44;;;18.67;53.01
1472;BME280;963;42.644;23.336;2022-11-20T02:17:35;93446.75;;;18.65;53.30
1472;BME280;963;42.644;23.336;2022-11-20T02:20:00;93443.47;;;18.73;52.78
1472;BME280;963;42.644;23.336;2022-11-20T02:22:32;93436.53;;;18.76;52.67
1472;BME280;963;42.644;23.336;2022-11-20T02:25:02;93436.97;;;18.74;52.88
1472;BME280;963;42.644;23.336;2022-11-20T02:27:28;93453.47;;;18.82;52.56
1472;BME280;963;42.644;23.336;2022-11-20T02:30:00;93420.97;;;18.87;52.65
1472;BME280;963;42.644;23.336;2022-11-20T02:32:32;93406.66;;;18.94;52.27
1472;BME280;963;42.644;23.336;2022-11-20T02:35:06;93433.13;;;18.88;52.68
1472;BME280;963;42.644;23.336;2022-11-20T02:37:35;93432.38;;;18.88;52.38
1472;BME280;963;42.644;23.336;2022-11-20T02:40:01;93440.50;;;18.97;52.58
1472;BME280;963;42.644;23.336;2022-11-20T02:42:27;93441.31;;;18.94;53.04
1472;BME280;963;42.644;23.336;2022-11-20T02:44:52;93440.56;;;18.93;52.64
1472;BME280;963;42.644;23.336;2022-11-20T02:47:18;93481.72;;;18.92;53.30
1472;BME280;963;42.644;23.336;2022-11-20T02:49:43;93461.91;;;18.93;53.66
1472;BME280;963;42.644;23.336;2022-11-20T02:52:08;93450.81;;;18.82;54.07
1472;BME280;963;42.644;23.336;2022-11-20T02:54:34;93462.00;;;18.77;54.48
1472;BME280;963;42.644;23.336;2022-11-20T02:56:59;93461.16;;;18.80;54.74
1472;BME280;963;42.644;23.336;2022-11-20T02:59:25;93457.31;;;18.81;55.14
1472;BME280;963;42.644;23.336;2022-11-20T03:01:50;93473.41;;;18.78;55.19
1472;BME280;963;42.644;23.336;2022-11-20T03:04:16;93444.94;;;18.62;55.71
1472;BME280;963;42.644;23.336;2022-11-20T03:06:41;93479.91;;;18.64;55.72
1472;BME280;963;42.644;23.336;2022-11-20T03:09:06;93492.03;;;18.65;55.45
1472;BME280;963;42.644;23.336;2022-11-20T03:11:32;93471.47;;;18.65;55.95
1472;BME280;963;42.644;23.336;2022-11-20T03:13:57;93481.88;;;18.60;55.58
1472;BME280;963;42.644;23.336;2022-11-20T03:16:23;93445.75;;;18.59;55.95
1472;BME280;963;42.644;23.336;2022-11-20T03:18:49;93447.59;;;18.62;56.00
1472;BME280;963;42.644;23.336;2022-11-20T03:21:17;93489.22;;;18.56;55.91
1472;BME280;963;42.644;23.336;2022-11-20T03:23:42;93504.22;;;18.50;56.27
1472;BME280;963;42.644;23.336;2022-11-20T03:28:37;93478.09;;;18.44;56.47
1472;BME280;963;42.644;23.336;2022-11-20T03:31:11;93484.94;;;18.46;55.79
1472;BME280;963;42.644;23.336;2022-11-20T03:33:37;93475.66;;;18.50;55.99
1472;BME280;963;42.644;23.336;2022-11-20T03:36:04;93465.63;;;18.41;56.32
1472;BME280;963;42.644;23.336;2022-11-20T03:38:31;93459.88;;;18.43;56.19
1472;BME280;963;42.644;23.336;2022-11-20T03:41:08;93483.44;;;18.44;56.22
1472;BME280;963;42.644;23.336;2022-11-20T03:43:34;93477.34;;;18.44;56.15
1472;BME280;963;42.644;23.336;2022-11-20T03:46:00;93469.91;;;18.39;56.20
1472;BME280;963;42.644;23.336;2022-11-20T03:48:26;93544.91;;;18.50;55.75
1472;BME280;963;42.644;23.336;2022-11-20T03:50:53;93492.59;;;18.43;56.06
1472;BME280;963;42.644;23.336;2022-11-20T03:53:19;93485.78;;;18.42;55.89
1472;BME280;963;42.644;23.336;2022-11-20T03:55:50;93473.63;;;18.41;56.15
1472;BME280;963;42.644;23.336;2022-11-20T03:58:15;93504.09;;;18.40;56.33
1472;BME280;963;42.644;23.336;2022-11-20T04:00:41;93498.75;;;18.40;55.98
1472;BME280;963;42.644;23.336;2022-11-20T04:03:06;93495.69;;;18.42;55.80
1472;BME280;963;42.644;23.336;2022-11-20T04:05:33;93512.91;;;18.37;55.99
1472;BME280;963;42.644;23.336;2022-11-20T04:07:59;93539.22;;;18.35;55.97
1472;BME280;963;42.644;23.336;2022-11-20T04:10:25;93492.38;;;18.38;55.81
1472;BME280;963;42.644;23.336;2022-11-20T04:12:50;93509.28;;;18.31;55.89
1472;BME280;963;42.644;23.336;2022-11-20T04:15:16;93499.06;;;18.30;56.12
1472;BME280;963;42.644;23.336;2022-11-20T04:17:41;93510.53;;;18.27;56.26
1472;BME280;963;42.644;23.336;2022-11-20T04:20:07;93505.47;;;18.16;56.65
1472;BME280;963;42.644;23.336;2022-11-20T04:22:32;93498.50;;;18.22;56.36
1472;BME280;963;42.644;23.336;2022-11-20T04:24:58;93541.75;;;18.26;56.41
1472;BME280;963;42.644;23.336;2022-11-20T04:27:23;93503.66;;;18.13;56.91
1472;BME280;963;42.644;23.336;2022-11-20T04:29:49;93528.28;;;18.17;57.31
1472;BME280;963;42.644;23.336;2022-11-20T04:32:14;93532.44;;;18.18;56.96
1472;BME280;963;42.644;23.336;2022-11-20T04:34:39;93525.28;;;18.15;57.64
1472;BME280;963;42.644;23.336;2022-11-20T04:37:05;93566.13;;;18.08;57.79
1472;BME280;963;42.644;23.336;2022-11-20T04:39:30;93507.34;;;18.03;58.06
1472;BME280;963;42.644;23.336;2022-11-20T04:41:55;93520.25;;;18.04;58.01
1472;BME280;963;42.644;23.336;2022-11-20T04:44:39;93527.28;;;18.11;57.72
1472;BME280;963;42.644;23.336;2022-11-20T04:47:05;93510.47;;;18.14;57.58
1472;BME280;963;42.644;23.336;2022-11-20T04:49:31;93512.81;;;18.12;57.60
1472;BME280;963;42.644;23.336;2022-11-20T04:51:57;93506.31;;;18.13;57.56
1472;BME280;963;42.644;23.336;2022-11-20T04:54:23;93503.53;;;18.04;57.73
1472;BME280;963;42.644;23.336;2022-11-20T04:56:49;93510.66;;;18.07;57.18
1472;BME280;963;42.644;23.336;2022-11-20T04:59:14;93493.44;;;18.11;56.31
1472;BME280;963;42.644;23.336;2022-11-20T05:01:40;93491.63;;;18.08;56.42
1472;BME280;963;42.644;23.336;2022-11-20T05:04:05;93479.72;;;18.13;56.89
1472;BME280;963;42.644;23.336;2022-11-20T05:06:31;93501.19;;;18.06;57.22
1472;BME280;963;42.644;23.336;2022-11-20T05:08:56;93509.34;;;17.99;57.97
1472;BME280;963;42.644;23.336;2022-11-20T05:11:22;93485.50;;;17.95;57.87
1472;BME280;963;42.644;23.336;2022-11-20T05:13:48;93491.38;;;18.03;57.27
1472;BME280;963;42.644;23.336;2022-11-20T05:16:19;93484.84;;;17.91;57.69
1472;BME280;963;42.644;23.336;2022-11-20T05:18:46;93476.44;;;17.93;58.31
1472;BME280;963;42.644;23.336;2022-11-20T05:21:12;93490.91;;;17.92;57.99
1472;BME280;963;42.644;23.336;2022-11-20T05:23:38;93480.78;;;17.87;58.65
1472;BME280;963;42.644;23.336;2022-11-20T05:26:05;93496.06;;;17.83;59.47
1472;BME280;963;42.644;23.336;2022-11-20T05:28:31;93479.03;;;17.80;60.14
1472;BME280;963;42.644;23.336;2022-11-20T05:31:08;93451.66;;;17.79;59.91
1472;BME280;963;42.644;23.336;2022-11-20T05:33:35;93462.81;;;17.74;60.01
1472;BME280;963;42.644;23.336;2022-11-20T05:36:02;93462.72;;;17.78;58.95
1472;BME280;963;42.644;23.336;2022-11-20T05:38:28;93476.03;;;17.78;59.45
1472;BME280;963;42.644;23.336;2022-11-20T05:40:53;93481.94;;;17.69;59.62
1472;BME280;963;42.644;23.336;2022-11-20T05:43:19;93479.28;;;17.69;59.48
1472;BME280;963;42.644;23.336;2022-11-20T05:45:54;93492.75;;;17.78;58.86
1472;BME280;963;42.644;23.336;2022-11-20T05:48:20;93428.25;;;17.74;58.71
1472;BME280;963;42.644;23.336;2022-11-20T05:50:45;93454.00;;;17.77;58.70
1472;BME280;963;42.644;23.336;2022-11-20T05:53:11;93516.69;;;17.78;57.81
1472;BME280;963;42.644;23.336;2022-11-20T05:55:36;93450.19;;;17.78;57.14
1472;BME280;963;42.644;23.336;2022-11-20T05:58:02;93484.25;;;17.84;57.01
1472;BME280;963;42.644;23.336;2022-11-20T06:00:27;93470.47;;;17.89;57.22
1472;BME280;963;42.644;23.336;2022-11-20T06:02:52;93472.28;;;17.92;57.73
1472;BME280;963;42.644;23.336;2022-11-20T06:05:18;93493.91;;;17.94;57.49
1472;BME280;963;42.644;23.336;2022-11-20T06:07:43;93468.47;;;17.93;57.50
1472;BME280;963;42.644;23.336;2022-11-20T06:10:09;93468.13;;;17.91;57.34
1472;BME280;963;42.644;23.336;2022-11-20T06:12:35;93469.63;;;17.92;57.45
1472;BME280;963;42.644;23.336;2022-11-20T06:15:00;93480.78;;;17.87;57.96
1472;BME280;963;42.644;23.336;2022-11-20T06:17:26;93462.16;;;17.87;57.58
1472;BME280;963;42.644;23.336;2022-11-20T06:19:51;93468.78;;;17.95;57.53
1472;BME280;963;42.644;23.336;2022-11-20T06:22:17;93458.00;;;17.86;57.95
1472;BME280;963;42.644;23.336;2022-11-20T06:24:42;93495.41;;;17.95;57.77
1472;BME280;963;42.644;23.336;2022-11-20T06:27:08;93494.97;;;17.96;57.33
1472;BME280;963;42.644;23.336;2022-11-20T06:29:33;93498.38;;;17.97;57.85
1472;BME280;963;42.644;23.336;2022-11-20T06:31:58;93495.31;;;17.98;57.54
1472;BME280;963;42.644;23.336;2022-11-20T06:34:24;93511.59;;;18.00;57.73
1472;BME280;963;42.644;23.336;2022-11-20T06:36:49;93495.13;;;18.05;57.80
1472;BME280;963;42.644;23.336;2022-11-20T06:39:15;93498.84;;;18.08;57.60
1472;BME280;963;42.644;23.336;2022-11-20T06:41:40;93494.19;;;18.12;57.07
1472;BME280;963;42.644;23.336;2022-11-20T06:44:05;93552.09;;;18.08;56.61
1472;BME280;963;42.644;23.336;2022-11-20T06:46:31;93503.44;;;18.07;56.47
1472;BME280;963;42.644;23.336;2022-11-20T06:48:57;93511.38;;;18.24;55.48
1472;BME280;963;42.644;23.336;2022-11-20T06:51:23;93526.34;;;18.34;54.62
1472;BME280;963;42.644;23.336;2022-11-20T06:53:49;93518.56;;;18.39;54.72
1472;BME280;963;42.644;23.336;2022-11-20T06:56:14;93535.44;;;18.49;54.16
1472;BME280;963;42.644;23.336;2022-11-20T06:58:39;93528.19;;;18.50;54.42
1472;BME280;963;42.644;23.336;2022-11-20T07:01:13;93503.59;;;18.58;54.29
1472;BME280;963;42.644;23.336;2022-11-20T07:03:39;93528.66;;;18.61;53.89
1472;BME280;963;42.644;23.336;2022-11-20T07:06:05;93527.00;;;18.67;54.07
1472;BME280;963;42.644;23.336;2022-11-20T07:08:31;93561.81;;;18.60;54.47
1472;BME280;963;42.644;23.336;2022-11-20T07:10:58;93515.69;;;18.63;54.78
1472;BME280;963;42.644;23.336;2022-11-20T07:13:24;93521.03;;;18.47;55.64
1472;BME280;963;42.644;23.336;2022-11-20T07:15:50;93498.75;;;18.40;55.70
1472;BME280;963;42.644;23.336;2022-11-20T07:18:16;93529.41;;;18.32;55.39
1472;BME280;963;42.644;23.336;2022-11-20T07:20:41;93528.56;;;18.35;55.81
1472;BME280;963;42.644;23.336;2022-11-20T07:23:07;93541.38;;;18.40;55.30
1472;BME280;963;42.644;23.336;2022-11-20T07:25:32;93561.19;;;18.39;55.52
1472;BME280;963;42.644;23.336;2022-11-20T07:27:58;93526.88;;;18.41;55.50
1472;BME280;963;42.644;23.336;2022-11-20T07:30:25;93535.72;;;18.38;55.39
1472;BME280;963;42.644;23.336;2022-11-20T07:32:51;93537.72;;;18.34;55.77
1472;BME280;963;42.644;23.336;2022-11-20T07:35:17;93522.50;;;18.35;55.67
1472;BME280;963;42.644;23.336;2022-11-20T07:37:42;93524.84;;;18.33;55.65
1472;BME280;963;42.644;23.336;2022-11-20T07:40:08;93523.91;;;18.39;55.37
1472;BME280;963;42.644;23.336;2022-11-20T07:42:34;93529.31;;;18.36;55.84
1472;BME280;963;42.644;23.336;2022-11-20T07:44:59;93522.50;;;18.35;55.89
1472;BME280;963;42.644;23.336;2022-11-20T07:47:24;93556.03;;;18.32;55.09
1472;BME280;963;42.644;23.336;2022-11-20T07:49:50;93543.56;;;18.29;55.90
1472;BME280;963;42.644;23.336;2022-11-20T07:52:15;93516.78;;;18.20;56.20
1472;BME280;963;42.644;23.336;2022-11-20T07:54:41;93532.44;;;18.18;58.31
1472;BME280;963;42.644;23.336;2022-11-20T07:57:06;93526.13;;;18.12;58.10
1472;BME280;963;42.644;23.336;2022-11-20T07:59:31;93545.44;;;18.00;59.48
1472;BME280;963;42.644;23.336;2022-11-20T08:01:57;93555.72;;;18.14;59.30
1472;BME280;963;42.644;23.336;2022-11-20T08:04:22;93538.78;;;18.08;59.44
1472;BME280;963;42.644;23.336;2022-11-20T08:06:48;93535.06;;;18.34;59.24
1472;BME280;963;42.644;23.336;2022-11-20T08:09:14;93533.09;;;18.22;58.36
1472;BME280;963;42.644;23.336;2022-11-20T08:11:39;93520.16;;;18.37;58.13
1472;BME280;963;42.644;23.336;2022-11-20T08:14:23;93533.50;;;18.50;59.34
1472;BME280;963;42.644;23.336;2022-11-20T08:16:49;93539.75;;;18.30;60.27
1472;BME280;963;42.644;23.336;2022-11-20T08:19:16;93551.19;;;18.43;59.81
1472;BME280;963;42.644;23.336;2022-11-20T08:21:42;93531.19;;;18.52;59.80
1472;BME280;963;42.644;23.336;2022-11-20T08:24:08;93549.03;;;18.38;58.99
1472;BME280;963;42.644;23.336;2022-11-20T08:26:35;93571.34;;;18.57;58.77
1472;BME280;963;42.644;23.336;2022-11-20T08:29:02;93555.78;;;18.72;58.56
1472;BME280;963;42.644;23.336;2022-11-20T08:31:27;93550.06;;;18.86;58.30
1472;BME280;963;42.644;23.336;2022-11-20T08:33:53;93547.72;;;18.88;58.45
1472;BME280;963;42.644;23.336;2022-11-20T08:36:20;93540.50;;;19.01;57.70
1472;BME280;963;42.644;23.336;2022-11-20T08:38:50;93556.59;;;19.11;57.76
1472;BME280;963;42.644;23.336;2022-11-20T08:41:16;93555.66;;;19.04;57.37
1472;BME280;963;42.644;23.336;2022-11-20T08:44:18;93566.63;;;19.07;56.98
1472;BME280;963;42.644;23.336;2022-11-20T08:46:43;93583.53;;;18.87;57.01
1472;BME280;963;42.644;23.336;2022-11-20T08:49:12;93589.00;;;18.96;57.47
1472;BME280;963;42.644;23.336;2022-11-20T08:51:38;93592.56;;;18.77;57.89
1472;BME280;963;42.644;23.336;2022-11-20T08:54:04;93607.34;;;18.65;58.51
1472;BME280;963;42.644;23.336;2022-11-20T08:56:30;93592.25;;;18.75;59.01
1472;BME280;963;42.644;23.336;2022-11-20T08:58:55;93607.91;;;18.57;58.67
1472;BME280;963;42.644;23.336;2022-11-20T09:01:22;93576.97;;;18.47;59.77
1472;BME280;963;42.644;23.336;2022-11-20T09:03:48;93590.09;;;18.25;61.29
1472;BME280;963;42.644;23.336;2022-11-20T09:06:15;93593.84;;;18.11;61.38
1472;BME280;963;42.644;23.336;2022-11-20T09:08:40;93585.94;;;18.07;62.24
1472;BME280;963;42.644;23.336;2022-11-20T09:11:06;93617.13;;;17.91;64.37
1472;BME280;963;42.644;23.336;2022-11-20T09:13:33;93582.38;;;17.81;64.30
1472;BME280;963;42.644;23.336;2022-11-20T09:16:05;93606.72;;;17.44;66.85
1472;BME280;963;42.644;23.336;2022-11-20T09:18:31;93592.34;;;17.41;66.26
1472;BME280;963;42.644;23.336;2022-11-20T09:20:58;93598.41;;;17.42;64.31
1472;BME280;963;42.644;23.336;2022-11-20T09:23:24;93606.88;;;17.37;63.32
1472;BME280;963;42.644;23.336;2022-11-20T09:25:50;93615.50;;;17.25;64.16
1472;BME280;963;42.644;23.336;2022-11-20T09:28:15;93590.78;;;17.08;66.12
1472;BME280;963;42.644;23.336;2022-11-20T09:30:43;93588.03;;;17.31;66.54
1472;BME280;963;42.644;23.336;2022-11-20T09:33:09;93566.09;;;17.27;65.99
1472;BME280;963;42.644;23.336;2022-11-20T09:35:34;93566.50;;;17.42;66.74
1472;BME280;963;42.644;23.336;2022-11-20T09:38:06;93587.50;;;17.56;67.34
1472;BME280;963;42.644;23.336;2022-11-20T09:40:34;93545.59;;;17.60;66.09
1472;BME280;963;42.644;23.336;2022-11-20T09:56:39;93532.28;;;18.09;69.90
1472;BME280;963;42.644;23.336;2022-11-20T10:01:59;93535.97;;;17.99;69.82
1472;BME280;963;42.644;23.336;2022-11-20T10:04:27;93541.38;;;18.40;70.80
1472;BME280;963;42.644;23.336;2022-11-20T10:07:13;93535.88;;;18.77;70.69
1472;BME280;963;42.644;23.336;2022-11-20T10:09:56;93541.44;;;18.95;70.14
1472;BME280;963;42.644;23.336;2022-11-20T10:12:45;93532.19;;;18.99;69.91
1472;BME280;963;42.644;23.336;2022-11-20T10:21:09;93540.59;;;18.98;65.36
1472;BME280;963;42.644;23.336;2022-11-20T10:23:49;93529.72;;;19.05;64.38
1472;BME280;963;42.644;23.336;2022-11-20T10:29:14;93507.22;;;18.93;66.53
1472;BME280;963;42.644;23.336;2022-11-20T10:34:28;93506.88;;;18.79;65.97
1472;BME280;963;42.644;23.336;2022-11-20T10:37:16;93519.06;;;19.05;65.77
1472;BME280;963;42.644;23.336;2022-11-20T10:42:27;93530.06;;;19.32;65.82
1472;BME280;963;42.644;23.336;2022-11-20T10:45:00;93530.28;;;19.38;65.10
1472;BME280;963;42.644;23.336;2022-11-20T10:47:30;93515.22;;;19.19;66.02
1472;BME280;963;42.644;23.336;2022-11-20T10:50:02;93504.56;;;19.19;66.83
1472;BME280;963;42.644;23.336;2022-11-20T11:00:22;93539.00;;;19.00;67.36
1472;BME280;963;42.644;23.336;2022-11-20T11:02:50;93558.16;;;18.83;67.81
1472;BME280;963;42.644;23.336;2022-11-20T11:08:03;93551.81;;;18.64;69.29
1472;BME280;963;42.644;23.336;2022-11-20T11:11:20;93582.63;;;18.65;69.95
1472;BME280;963;42.644;23.336;2022-11-20T11:13:29;93620.47;;;18.56;71.42
1472;BME280;963;42.644;23.336;2022-11-20T11:15:54;93637.00;;;18.35;72.39
1472;BME280;963;42.644;23.336;2022-11-20T11:18:31;93606.81;;;17.93;72.13
1472;BME280;963;42.644;23.336;2022-11-20T11:20:59;93624.34;;;17.38;60.65
1472;BME280;963;42.644;23.336;2022-11-20T11:23:45;93626.41;;;16.71;63.55
1472;BME280;963;42.644;23.336;2022-11-20T11:26:21;93582.19;;;16.41;63.54
1472;BME280;963;42.644;23.336;2022-11-20T11:29:02;93583.47;;;16.52;64.75
1472;BME280;963;42.644;23.336;2022-11-20T11:31:30;93601.75;;;16.27;64.29
1472;BME280;963;42.644;23.336;2022-11-20T11:34:06;93619.31;;;15.94;66.18
1472;BME280;963;42.644;23.336;2022-11-20T11:36:33;93585.44;;;15.82;66.87
1472;BME280;963;42.644;23.336;2022-11-20T11:39:00;93589.97;;;15.54;65.28
1472;BME280;963;42.644;23.336;2022-11-20T11:41:30;93593.06;;;15.22;66.90
1472;BME280;963;42.644;23.336;2022-11-20T11:44:01;93581.56;;;15.06;65.65
1472;BME280;963;42.644;23.336;2022-11-20T11:46:53;93601.72;;;14.96;66.74
1472;BME280;963;42.644;23.336;2022-11-20T11:49:20;93588.28;;;14.80;67.81
1472;BME280;963;42.644;23.336;2022-11-20T12:00:27;93579.56;;;14.83;68.03
1472;BME280;963;42.644;23.336;2022-11-20T12:03:14;93530.75;;;14.84;67.58
1472;BME280;963;42.644;23.336;2022-11-20T12:05:56;93548.56;;;14.80;69.27
1472;BME280;963;42.644;23.336;2022-11-20T12:11:51;93560.38;;;14.75;68.39
1472;BME280;963;42.644;23.336;2022-11-20T12:14:34;93588.16;;;14.60;70.76
1472;BME280;963;42.644;23.336;2022-11-20T12:17:01;93623.56;;;14.32;73.67
1472;BME280;963;42.644;23.336;2022-11-20T12:19:29;93589.19;;;14.28;72.63
1472;BME280;963;42.644;23.336;2022-11-20T12:30:15;93573.22;;;13.98;73.26
1472;BME280;963;42.644;23.336;2022-11-20T12:35:47;93553.69;;;13.88;70.59
1472;BME280;963;42.644;23.336;2022-11-20T12:43:42;93461.34;;;14.04;70.77
1472;BME280;963;42.644;23.336;2022-11-20T12:46:46;93449.84;;;14.22;71.63
1472;BME280;963;42.644;23.336;2022-11-20T12:49:39;93436.88;;;14.31;71.41
1472;BME280;963;42.644;23.336;2022-11-20T12:52:29;93452.16;;;14.50;66.80
1472;BME280;963;42.644;23.336;2022-11-20T12:55:20;93456.81;;;14.69;67.11
1472;BME280;963;42.644;23.336;2022-11-20T13:02:09;93464.03;;;14.96;72.15
1472;BME280;963;42.644;23.336;2022-11-20T13:07:04;93479.56;;;14.94;75.32
1472;BME280;963;42.644;23.336;2022-11-20T13:09:32;93484.06;;;14.97;75.67
1472;BME280;963;42.644;23.336;2022-11-20T13:14:35;93502.56;;;15.00;78.19
1472;BME280;963;42.644;23.336;2022-11-20T13:17:33;93509.75;;;15.00;77.90
1472;BME280;963;42.644;23.336;2022-11-20T13:20:05;93495.06;;;14.95;76.89
1472;BME280;963;42.644;23.336;2022-11-20T13:25:22;93512.50;;;14.93;77.86
1472;BME280;963;42.644;23.336;2022-11-20T13:27:48;93530.84;;;14.77;77.32
1472;BME280;963;42.644;23.336;2022-11-20T13:30:17;93539.84;;;14.83;78.25
1472;BME280;963;42.644;23.336;2022-11-20T13:40:30;93537.50;;;14.20;80.94
1472;BME280;963;42.644;23.336;2022-11-20T13:43:11;93528.94;;;14.47;80.02
1472;BME280;963;42.644;23.336;2022-11-20T13:45:41;93566.91;;;13.88;82.28
1472;BME280;963;42.644;23.336;2022-11-20T13:48:20;93543.00;;;14.36;80.23
1472;BME280;963;42.644;23.336;2022-11-20T13:50:56;93535.38;;;14.42;80.22
1472;BME280;963;42.644;23.336;2022-11-20T13:55:59;93541.91;;;14.34;78.86
1472;BME280;963;42.644;23.336;2022-11-20T14:01:13;93552.88;;;14.70;78.85
1472;BME280;963;42.644;23.336;2022-11-20T14:03:40;93563.38;;;14.77;78.78
1472;BME280;963;42.644;23.336;2022-11-20T14:06:25;93550.47;;;14.79;78.13
1472;BME280;963;42.644;23.336;2022-11-20T14:08:52;93558.72;;;14.85;77.89
1472;BME280;963;42.644;23.336;2022-11-20T14:11:19;93574.59;;;14.88;78.44
1472;BME280;963;42.644;23.336;2022-11-20T14:14:18;93538.94;;;14.96;80.31
1472;BME280;963;42.644;23.336;2022-11-20T14:16:44;93541.22;;;14.94;77.32
1472;BME280;963;42.644;23.336;2022-11-20T14:21:51;93522.22;;;14.99;77.41
1472;BME280;963;42.644;23.336;2022-11-20T14:24:24;93528.84;;;14.88;76.81
1472;BME280;963;42.644;23.336;2022-11-20T14:26:50;93526.09;;;14.95;77.50
1472;BME280;963;42.644;23.336;2022-11-20T14:29:18;93529.78;;;15.01;77.85
1472;BME280;963;42.644;23.336;2022-11-20T14:31:48;93531.72;;;14.97;77.17
1472;BME280;963;42.644;23.336;2022-11-20T14:34:22;93526.78;;;14.99;76.88
1472;BME280;963;42.644;23.336;2022-11-20T14:36:48;93536.41;;;14.86;77.34
1472;BME280;963;42.644;23.336;2022-11-20T14:39:21;93523.94;;;14.83;77.58
1472;BME280;963;42.644;23.336;2022-11-20T14:41:51;93526.09;;;14.95;77.35
1472;BME280;963;42.644;23.336;2022-11-20T14:44:17;93534.72;;;14.99;76.77
1472;BME280;963;42.644;23.336;2022-11-20T14:46:45;93532.84;;;14.99;78.02
1472;BME280;963;42.644;23.336;2022-11-20T14:49:11;93538.44;;;15.05;77.72
1472;BME280;963;42.644;23.336;2022-11-20T14:51:38;93551.66;;;15.05;77.57
1472;BME280;963;42.644;23.336;2022-11-20T14:54:18;93538.44;;;15.05;78.03
1472;BME280;963;42.644;23.336;2022-11-20T14:56:54;93538.47;;;15.01;77.17
1472;BME280;963;42.644;23.336;2022-11-20T14:59:25;93543.41;;;14.99;77.56
1472;BME280;963;42.644;23.336;2022-11-20T15:02:05;93555.56;;;14.97;78.03
1472;BME280;963;42.644;23.336;2022-11-20T15:04:50;93560.06;;;15.00;77.12
1472;BME280;963;42.644;23.336;2022-11-20T15:07:36;93552.69;;;14.84;76.83
1472;BME280;963;42.644;23.336;2022-11-20T15:12:47;93560.88;;;14.97;75.13
1472;BME280;963;42.644;23.336;2022-11-20T15:15:18;93556.06;;;14.85;75.44